createdAt,value
2023-04-08T00:00:09.603Z,17.33
2023-04-08T00:00:20.613Z,17.32
2023-04-08T00:00:32.600Z,17.33
2023-04-08T00:00:44.582Z,17.33
2023-04-08T00:00:55.594Z,17.33
2023-04-08T00:01:07.575Z,17.33
2023-04-08T00:01:18.559Z,17.32
2023-04-08T00:01:29.868Z,17.32
2023-04-08T00:01:41.648Z,17.33
2023-04-08T00:01:52.696Z,17.33
2023-04-08T00:02:03.645Z,17.33
2023-04-08T00:02:14.675Z,17.32
2023-04-08T00:02:25.639Z,17.33
2023-04-08T00:02:36.836Z,17.32
2023-04-08T00:02:48.626Z,17.32
2023-04-08T00:02:59.639Z,17.32
2023-04-08T00:03:10.702Z,17.32
2023-04-08T00:03:21.730Z,17.32
2023-04-08T00:03:33.756Z,17.33
2023-04-08T00:03:45.718Z,17.33
2023-04-08T00:03:57.902Z,17.33
2023-04-08T00:04:08.693Z,17.33
2023-04-08T00:04:19.676Z,17.30
2023-04-08T00:04:30.654Z,17.32
2023-04-08T00:04:41.641Z,17.32
2023-04-08T00:04:52.556Z,17.33
2023-04-08T00:05:03.766Z,17.32
2023-04-08T00:05:15.562Z,17.30
2023-04-08T00:05:26.553Z,17.32
2023-04-08T00:05:37.562Z,17.32
2023-04-08T00:05:48.564Z,17.32
2023-04-08T00:05:59.565Z,17.32
2023-04-08T00:06:10.578Z,17.32
2023-04-08T00:06:21.558Z,17.32
2023-04-08T00:06:32.573Z,17.32
2023-04-08T00:06:43.589Z,17.32
2023-04-08T00:06:54.588Z,17.32
2023-04-08T00:07:05.573Z,17.32
2023-04-08T00:07:16.599Z,17.30
2023-04-08T00:07:27.600Z,17.32
2023-04-08T00:07:38.588Z,17.32
2023-04-08T00:07:49.583Z,17.30
2023-04-08T00:08:00.579Z,17.32
2023-04-08T00:08:11.587Z,17.32
2023-04-08T00:08:22.591Z,17.32
2023-04-08T00:08:33.597Z,17.30
2023-04-08T00:08:44.591Z,17.32
2023-04-08T00:08:55.598Z,17.29
2023-04-08T00:09:06.597Z,17.30
2023-04-08T00:09:17.602Z,17.32
2023-04-08T00:09:28.597Z,17.30
2023-04-08T00:09:39.574Z,17.30
2023-04-08T00:09:50.597Z,17.30
2023-04-08T00:10:02.604Z,17.30
2023-04-08T00:10:13.587Z,17.30
2023-04-08T00:10:24.589Z,17.32
2023-04-08T00:10:35.593Z,17.30
2023-04-08T00:10:47.600Z,17.30
2023-04-08T00:10:58.614Z,17.30
2023-04-08T00:11:09.609Z,17.29
2023-04-08T00:11:21.588Z,17.30
2023-04-08T00:11:32.608Z,17.30
2023-04-08T00:11:44.585Z,17.30
2023-04-08T00:11:55.575Z,17.30
2023-04-08T00:12:06.585Z,17.30
2023-04-08T00:12:17.597Z,17.29
2023-04-08T00:12:28.591Z,17.30
2023-04-08T00:12:39.606Z,17.32
2023-04-08T00:12:51.583Z,17.30
2023-04-08T00:13:02.633Z,17.30
2023-04-08T00:13:13.563Z,17.30
2023-04-08T00:13:24.628Z,17.30
2023-04-08T00:13:36.588Z,17.30
2023-04-08T00:13:47.585Z,17.30
2023-04-08T00:13:59.590Z,17.28
2023-04-08T00:14:10.587Z,17.30
2023-04-08T00:14:21.584Z,17.30
2023-04-08T00:14:32.597Z,17.30
2023-04-08T00:14:43.599Z,17.29
2023-04-08T00:14:54.603Z,17.29
2023-04-08T00:15:05.581Z,17.29
2023-04-08T00:15:16.586Z,17.29
2023-04-08T00:15:27.588Z,17.29
2023-04-08T00:15:38.598Z,17.30
2023-04-08T00:15:49.596Z,17.30
2023-04-08T00:16:00.591Z,17.30
2023-04-08T00:16:11.598Z,17.29
2023-04-08T00:16:23.594Z,17.29
2023-04-08T00:16:34.627Z,17.29
2023-04-08T00:16:46.630Z,17.29
2023-04-08T00:16:57.611Z,17.30
2023-04-08T00:17:08.635Z,17.29
2023-04-08T00:17:19.605Z,17.29
2023-04-08T00:17:30.608Z,17.29
2023-04-08T00:17:41.708Z,17.29
2023-04-08T00:17:53.653Z,17.29
2023-04-08T00:18:04.694Z,17.29
2023-04-08T00:18:16.611Z,17.30
2023-04-08T00:18:27.600Z,17.29
2023-04-08T00:18:38.592Z,17.30
2023-04-08T00:18:49.997Z,17.29
2023-04-08T00:19:00.610Z,17.29
2023-04-08T00:19:12.608Z,17.29
2023-04-08T00:19:23.601Z,17.29
2023-04-08T00:19:36.226Z,17.30
2023-04-08T00:19:45.574Z,17.29
2023-04-08T00:19:56.581Z,17.29
2023-04-08T00:20:07.568Z,17.29
2023-04-08T00:20:18.596Z,17.28
2023-04-08T00:20:29.583Z,17.29
2023-04-08T00:20:40.578Z,17.30
2023-04-08T00:20:51.562Z,17.29
2023-04-08T00:21:02.545Z,17.29
2023-04-08T00:21:13.631Z,17.29
2023-04-08T00:21:25.589Z,17.29
2023-04-08T00:21:36.584Z,17.29
2023-04-08T00:21:48.572Z,17.29
2023-04-08T00:21:59.577Z,17.29
2023-04-08T00:22:10.577Z,17.29
2023-04-08T00:22:21.575Z,17.29
2023-04-08T00:22:32.591Z,17.30
2023-04-08T00:22:44.576Z,17.28
2023-04-08T00:22:55.587Z,17.29
2023-04-08T00:23:07.603Z,17.28
2023-04-08T00:23:18.609Z,17.29
2023-04-08T00:23:30.579Z,17.29
2023-04-08T00:23:41.572Z,17.29
2023-04-08T00:23:52.556Z,17.29
2023-04-08T00:24:03.571Z,17.28
2023-04-08T00:24:14.587Z,17.29
2023-04-08T00:24:25.578Z,17.28
2023-04-08T00:24:36.571Z,17.28
2023-04-08T00:24:47.563Z,17.28
2023-04-08T00:24:58.563Z,17.28
2023-04-08T00:25:09.631Z,17.28
2023-04-08T00:25:21.504Z,17.28
2023-04-08T00:25:32.594Z,17.28
2023-04-08T00:25:43.578Z,17.28
2023-04-08T00:25:54.572Z,17.29
2023-04-08T00:26:05.584Z,17.29
2023-04-08T00:26:16.591Z,17.28
2023-04-08T00:26:27.593Z,17.28
2023-04-08T00:26:38.595Z,17.28
2023-04-08T00:26:49.598Z,17.29
2023-04-08T00:27:01.584Z,17.28
2023-04-08T00:27:12.597Z,17.28
2023-04-08T00:27:23.588Z,17.28
2023-04-08T00:27:34.575Z,17.28
2023-04-08T00:27:45.589Z,17.28
2023-04-08T00:27:56.596Z,17.28
2023-04-08T00:28:07.597Z,17.29
2023-04-08T00:28:19.576Z,17.28
2023-04-08T00:28:30.576Z,17.28
2023-04-08T00:28:41.569Z,17.29
2023-04-08T00:28:52.564Z,17.29
2023-04-08T00:29:03.552Z,17.29
2023-04-08T00:29:14.558Z,17.28
2023-04-08T00:29:25.588Z,17.28
2023-04-08T00:29:36.586Z,17.28
2023-04-08T00:29:47.579Z,17.26
2023-04-08T00:29:58.579Z,17.28
2023-04-08T00:30:09.584Z,17.29
2023-04-08T00:30:20.578Z,17.28
2023-04-08T00:30:31.623Z,17.28
2023-04-08T00:30:42.617Z,17.28
2023-04-08T00:30:54.620Z,17.28
2023-04-08T00:31:06.667Z,17.26
2023-04-08T00:31:18.619Z,17.29
2023-04-08T00:31:30.603Z,17.26
2023-04-08T00:31:41.592Z,17.28
2023-04-08T00:31:52.585Z,17.28
2023-04-08T00:32:03.585Z,17.28
2023-04-08T00:32:14.592Z,17.28
2023-04-08T00:32:25.598Z,17.28
2023-04-08T00:32:36.644Z,17.26
2023-04-08T00:32:47.580Z,17.26
2023-04-08T00:32:58.592Z,17.29
2023-04-08T00:33:10.630Z,17.28
2023-04-08T00:33:21.557Z,17.28
2023-04-08T00:33:32.570Z,17.28
2023-04-08T00:33:43.579Z,17.26
2023-04-08T00:33:54.585Z,17.28
2023-04-08T00:34:05.601Z,17.26
2023-04-08T00:34:17.573Z,17.28
2023-04-08T00:34:28.582Z,17.28
2023-04-08T00:34:39.564Z,17.26
2023-04-08T00:34:50.575Z,17.26
2023-04-08T00:35:01.590Z,17.29
2023-04-08T00:35:12.587Z,17.28
2023-04-08T00:35:23.618Z,17.28
2023-04-08T00:35:35.631Z,17.29
2023-04-08T00:35:47.637Z,17.26
2023-04-08T00:35:59.613Z,17.29
2023-04-08T00:36:11.592Z,17.28
2023-04-08T00:36:23.622Z,17.26
2023-04-08T00:36:34.575Z,17.26
2023-04-08T00:36:45.595Z,17.25
2023-04-08T00:36:56.593Z,17.26
2023-04-08T00:37:07.589Z,17.28
2023-04-08T00:37:18.594Z,17.26
2023-04-08T00:37:29.592Z,17.26
2023-04-08T00:37:40.589Z,17.26
2023-04-08T00:37:51.587Z,17.26
2023-04-08T00:38:02.590Z,17.26
2023-04-08T00:38:13.600Z,17.26
2023-04-08T00:38:24.587Z,17.26
2023-04-08T00:38:35.591Z,17.26
2023-04-08T00:38:46.581Z,17.28
2023-04-08T00:38:57.579Z,17.28
2023-04-08T00:39:08.581Z,17.28
2023-04-08T00:39:19.546Z,17.26
2023-04-08T00:39:30.554Z,17.26
2023-04-08T00:39:41.542Z,17.28
2023-04-08T00:39:52.596Z,17.28
2023-04-08T00:40:03.648Z,17.26
2023-04-08T00:40:15.606Z,17.26
2023-04-08T00:40:26.594Z,17.28
2023-04-08T00:40:38.586Z,17.28
2023-04-08T00:40:49.591Z,17.26
2023-04-08T00:41:00.565Z,17.26
2023-04-08T00:41:11.570Z,17.28
2023-04-08T00:41:22.577Z,17.28
2023-04-08T00:41:33.581Z,17.26
2023-04-08T00:41:44.592Z,17.25
2023-04-08T00:41:55.586Z,17.28
2023-04-08T00:42:06.589Z,17.29
2023-04-08T00:42:17.628Z,17.28
2023-04-08T00:42:29.587Z,17.26
2023-04-08T00:42:40.569Z,17.28
2023-04-08T00:42:51.569Z,17.26
2023-04-08T00:43:02.584Z,17.26
2023-04-08T00:43:13.605Z,17.28
2023-04-08T00:43:24.600Z,17.26
2023-04-08T00:43:35.594Z,17.26
2023-04-08T00:43:46.615Z,17.26
2023-04-08T00:43:58.574Z,17.28
2023-04-08T00:44:09.582Z,17.25
2023-04-08T00:44:20.567Z,17.26
2023-04-08T00:44:31.660Z,17.26
2023-04-08T00:44:43.623Z,17.26
2023-04-08T00:44:54.598Z,17.26
2023-04-08T00:45:06.580Z,17.26
2023-04-08T00:45:17.591Z,17.28
2023-04-08T00:45:28.593Z,17.26
2023-04-08T00:45:39.579Z,17.26
2023-04-08T00:45:50.587Z,17.25
2023-04-08T00:46:01.610Z,17.26
2023-04-08T00:46:13.764Z,17.26
2023-04-08T00:46:24.642Z,17.26
2023-04-08T00:46:36.710Z,17.28
2023-04-08T00:46:47.606Z,17.26
2023-04-08T00:46:58.590Z,17.26
2023-04-08T00:47:09.593Z,17.26
2023-04-08T00:47:20.647Z,17.25
2023-04-08T00:47:32.659Z,17.26
2023-04-08T00:47:44.625Z,17.26
2023-04-08T00:47:56.639Z,17.25
2023-04-08T00:48:08.606Z,17.26
2023-04-08T00:48:19.599Z,17.26
2023-04-08T00:48:30.584Z,17.26
2023-04-08T00:48:41.577Z,17.26
2023-04-08T00:48:52.755Z,17.26
2023-04-08T00:49:03.544Z,17.26
2023-04-08T00:49:14.548Z,17.26
2023-04-08T00:49:25.634Z,17.26
2023-04-08T00:49:37.597Z,17.25
2023-04-08T00:49:49.566Z,17.26
2023-04-08T00:50:00.576Z,17.25
2023-04-08T00:50:11.558Z,17.26
2023-04-08T00:50:22.556Z,17.26
2023-04-08T00:50:33.572Z,17.25
2023-04-08T00:50:44.596Z,17.26
2023-04-08T00:50:55.590Z,17.26
2023-04-08T00:51:06.577Z,17.26
2023-04-08T00:51:17.573Z,17.26
2023-04-08T00:51:28.584Z,17.26
2023-04-08T00:51:39.612Z,17.26
2023-04-08T00:51:51.583Z,17.25
2023-04-08T00:52:02.597Z,17.26
2023-04-08T00:52:13.587Z,17.26
2023-04-08T00:52:24.598Z,17.25
2023-04-08T00:52:35.594Z,17.26
2023-04-08T00:52:46.597Z,17.25
2023-04-08T00:52:57.582Z,17.26
2023-04-08T00:53:08.562Z,17.23
2023-04-08T00:53:19.563Z,17.25
2023-04-08T00:53:30.645Z,17.25
2023-04-08T00:53:42.605Z,17.23
2023-04-08T00:53:53.557Z,17.26
2023-04-08T00:54:04.600Z,17.26
2023-04-08T00:54:15.617Z,17.25
2023-04-08T00:54:27.596Z,17.25
2023-04-08T00:54:38.593Z,17.25
2023-04-08T00:54:49.612Z,17.26
2023-04-08T00:55:01.578Z,17.25
2023-04-08T00:55:13.580Z,17.26
2023-04-08T00:55:24.581Z,17.25
2023-04-08T00:55:35.584Z,17.25
2023-04-08T00:55:46.574Z,17.26
2023-04-08T00:55:57.576Z,17.26
2023-04-08T00:56:08.580Z,17.26
2023-04-08T00:56:19.590Z,17.25
2023-04-08T00:56:30.583Z,17.25
2023-04-08T00:56:41.595Z,17.25
2023-04-08T00:56:52.591Z,17.25
2023-04-08T00:57:03.586Z,17.25
2023-04-08T00:57:14.570Z,17.25
2023-04-08T00:57:25.576Z,17.25
2023-04-08T00:57:36.562Z,17.25
2023-04-08T00:57:47.556Z,17.23
2023-04-08T00:57:58.551Z,17.25
2023-04-08T00:58:09.555Z,17.25
2023-04-08T00:58:20.579Z,17.23
2023-04-08T00:58:31.569Z,17.23
2023-04-08T00:58:42.554Z,17.25
2023-04-08T00:58:53.550Z,17.25
2023-04-08T00:59:04.563Z,17.25
2023-04-08T00:59:15.551Z,17.23
2023-04-08T00:59:26.544Z,17.23
2023-04-08T00:59:37.568Z,17.25
2023-04-08T00:59:48.555Z,17.25
2023-04-08T00:59:59.560Z,17.23
2023-04-08T01:00:10.581Z,17.25
2023-04-08T01:00:21.581Z,17.26
2023-04-08T01:00:32.602Z,17.25
2023-04-08T01:00:43.592Z,17.25
2023-04-08T01:00:54.591Z,17.25
2023-04-08T01:01:05.621Z,17.25
2023-04-08T01:01:17.624Z,17.25
2023-04-08T01:01:29.660Z,17.23
2023-04-08T01:01:40.707Z,17.25
2023-04-08T01:01:52.672Z,17.23
2023-04-08T01:02:04.718Z,17.25
2023-04-08T01:02:16.767Z,17.25
2023-04-08T01:02:27.796Z,17.25
2023-04-08T01:02:39.778Z,17.25
2023-04-08T01:02:50.750Z,17.25
2023-04-08T01:03:01.725Z,17.25
2023-04-08T01:03:13.741Z,17.23
2023-04-08T01:03:25.798Z,17.23
2023-04-08T01:03:37.737Z,17.23
2023-04-08T01:03:49.716Z,17.22
2023-04-08T01:04:00.628Z,17.25
2023-04-08T01:04:11.677Z,17.25
2023-04-08T01:04:22.713Z,17.25
2023-04-08T01:04:34.590Z,17.23
2023-04-08T01:04:45.594Z,17.23
2023-04-08T01:04:56.582Z,17.25
2023-04-08T01:05:07.566Z,17.25
2023-04-08T01:05:18.550Z,17.23
2023-04-08T01:05:29.554Z,17.23
2023-04-08T01:05:40.549Z,17.22
2023-04-08T01:05:51.548Z,17.23
2023-04-08T01:06:02.636Z,17.22
2023-04-08T01:06:14.606Z,17.23
2023-04-08T01:06:26.584Z,17.25
2023-04-08T01:06:37.596Z,17.25
2023-04-08T01:06:49.578Z,17.23
2023-04-08T01:07:00.567Z,17.23
2023-04-08T01:07:11.544Z,17.23
2023-04-08T01:07:22.544Z,17.23
2023-04-08T01:07:33.581Z,17.25
2023-04-08T01:07:44.563Z,17.23
2023-04-08T01:07:55.554Z,17.23
2023-04-08T01:08:06.547Z,17.23
2023-04-08T01:08:17.551Z,17.23
2023-04-08T01:08:28.546Z,17.23
2023-04-08T01:08:39.547Z,17.23
2023-04-08T01:08:50.744Z,17.25
2023-04-08T01:09:01.595Z,17.23
2023-04-08T01:09:12.608Z,17.23
2023-04-08T01:09:24.575Z,17.23
2023-04-08T01:09:35.578Z,17.23
2023-04-08T01:09:46.592Z,17.23
2023-04-08T01:09:58.563Z,17.23
2023-04-08T01:10:09.613Z,17.22
2023-04-08T01:10:21.578Z,17.22
2023-04-08T01:10:32.593Z,17.22
2023-04-08T01:10:43.593Z,17.23
2023-04-08T01:10:54.595Z,17.23
2023-04-08T01:11:05.632Z,17.23
2023-04-08T01:11:17.585Z,17.22
2023-04-08T01:11:28.580Z,17.23
2023-04-08T01:11:39.599Z,17.23
2023-04-08T01:11:50.607Z,17.22
2023-04-08T01:12:01.601Z,17.22
2023-04-08T01:12:12.597Z,17.23
2023-04-08T01:12:23.601Z,17.22
2023-04-08T01:12:35.582Z,17.23
2023-04-08T01:12:46.596Z,17.22
2023-04-08T01:12:57.591Z,17.22
2023-04-08T01:13:08.621Z,17.23
2023-04-08T01:13:20.588Z,17.23
2023-04-08T01:13:31.595Z,17.25
2023-04-08T01:13:42.602Z,17.22
2023-04-08T01:13:53.606Z,17.23
2023-04-08T01:14:04.585Z,17.23
2023-04-08T01:14:15.592Z,17.25
2023-04-08T01:14:26.605Z,17.23
2023-04-08T01:14:37.606Z,17.23
2023-04-08T01:14:48.598Z,17.23
2023-04-08T01:14:59.612Z,17.22
2023-04-08T01:15:10.596Z,17.22
2023-04-08T01:15:21.591Z,17.23
2023-04-08T01:15:32.618Z,17.23
2023-04-08T01:15:44.626Z,17.22
2023-04-08T01:15:56.657Z,17.22
2023-04-08T01:16:07.606Z,17.23
2023-04-08T01:16:18.604Z,17.22
2023-04-08T01:16:29.731Z,17.22
2023-04-08T01:16:40.607Z,17.22
2023-04-08T01:16:51.573Z,17.22
2023-04-08T01:17:02.578Z,17.22
2023-04-08T01:17:13.581Z,17.22
2023-04-08T01:17:24.586Z,17.22
2023-04-08T01:17:36.629Z,17.23
2023-04-08T01:17:48.624Z,17.22
2023-04-08T01:18:00.614Z,17.22
2023-04-08T01:18:12.664Z,17.23
2023-04-08T01:18:24.622Z,17.22
2023-04-08T01:18:36.611Z,17.22
2023-04-08T01:18:48.662Z,17.22
2023-04-08T01:18:59.603Z,17.22
2023-04-08T01:19:10.603Z,17.23
2023-04-08T01:19:21.602Z,17.22
2023-04-08T01:19:32.592Z,17.22
2023-04-08T01:19:43.593Z,17.22
2023-04-08T01:19:54.597Z,17.20
2023-04-08T01:20:05.581Z,17.23
2023-04-08T01:20:16.589Z,17.22
2023-04-08T01:20:27.591Z,17.22
2023-04-08T01:20:38.603Z,17.22
2023-04-08T01:20:49.602Z,17.20
2023-04-08T01:21:01.600Z,17.22
2023-04-08T01:21:12.592Z,17.22
2023-04-08T01:21:23.586Z,17.22
2023-04-08T01:21:34.594Z,17.22
2023-04-08T01:21:45.598Z,17.22
2023-04-08T01:21:56.598Z,17.20
2023-04-08T01:22:07.587Z,17.22
2023-04-08T01:22:18.582Z,17.22
2023-04-08T01:22:29.596Z,17.20
2023-04-08T01:22:40.583Z,17.20
2023-04-08T01:22:51.564Z,17.22
2023-04-08T01:23:02.547Z,17.22
2023-04-08T01:23:13.636Z,17.20
2023-04-08T01:23:25.601Z,17.20
2023-04-08T01:23:36.604Z,17.20
2023-04-08T01:23:47.599Z,17.20
2023-04-08T01:23:58.608Z,17.20
2023-04-08T01:24:10.576Z,17.20
2023-04-08T01:24:21.579Z,17.22
2023-04-08T01:24:32.574Z,17.18
2023-04-08T01:24:43.559Z,17.22
2023-04-08T01:24:54.637Z,17.20
2023-04-08T01:25:06.606Z,17.20
2023-04-08T01:25:17.638Z,17.20
2023-04-08T01:25:29.613Z,17.20
2023-04-08T01:25:40.608Z,17.20
2023-04-08T01:25:52.588Z,17.20
2023-04-08T01:26:03.597Z,17.20
2023-04-08T01:26:14.579Z,17.20
2023-04-08T01:26:25.576Z,17.20
2023-04-08T01:26:36.564Z,17.20
2023-04-08T01:26:47.598Z,17.20
2023-04-08T01:26:58.595Z,17.18
2023-04-08T01:27:09.600Z,17.20
2023-04-08T01:27:21.579Z,17.22
2023-04-08T01:27:32.569Z,17.20
2023-04-08T01:27:43.574Z,17.22
2023-04-08T01:27:54.578Z,17.20
2023-04-08T01:28:06.574Z,17.20
2023-04-08T01:28:17.570Z,17.20
2023-04-08T01:28:28.567Z,17.20
2023-04-08T01:28:39.566Z,17.18
2023-04-08T01:28:50.636Z,17.18
2023-04-08T01:29:01.605Z,17.18
2023-04-08T01:29:13.590Z,17.20
2023-04-08T01:29:24.601Z,17.18
2023-04-08T01:29:35.602Z,17.18
2023-04-08T01:29:46.591Z,17.18
2023-04-08T01:29:57.583Z,17.18
2023-04-08T01:30:08.579Z,17.18
2023-04-08T01:30:19.578Z,17.20
2023-04-08T01:30:30.675Z,17.18
2023-04-08T01:30:41.564Z,17.20
2023-04-08T01:30:52.584Z,17.18
2023-04-08T01:31:03.654Z,17.20
2023-04-08T01:31:15.637Z,17.18
2023-04-08T01:31:27.697Z,17.18
2023-04-08T01:31:39.649Z,17.18
2023-04-08T01:31:50.575Z,17.20
2023-04-08T01:32:01.584Z,17.18
2023-04-08T01:32:12.580Z,17.18
2023-04-08T01:32:23.610Z,17.18
2023-04-08T01:32:34.643Z,17.20
2023-04-08T01:32:46.647Z,17.17
2023-04-08T01:32:58.712Z,17.18
2023-04-08T01:33:09.586Z,17.18
2023-04-08T01:33:20.602Z,17.18
2023-04-08T01:33:31.610Z,17.18
2023-04-08T01:33:42.605Z,17.18
2023-04-08T01:33:53.599Z,17.17
2023-04-08T01:34:04.610Z,17.18
2023-04-08T01:34:16.575Z,17.17
2023-04-08T01:34:27.600Z,17.18
2023-04-08T01:34:38.588Z,17.17
2023-04-08T01:34:49.616Z,17.17
2023-04-08T01:35:01.582Z,17.18
2023-04-08T01:35:12.587Z,17.17
2023-04-08T01:35:23.621Z,17.15
2023-04-08T01:35:34.604Z,17.18
2023-04-08T01:35:45.620Z,17.17
2023-04-08T01:35:56.625Z,17.18
2023-04-08T01:36:07.640Z,17.17
2023-04-08T01:36:18.574Z,17.18
2023-04-08T01:36:29.564Z,17.17
2023-04-08T01:36:40.568Z,17.18
2023-04-08T01:36:51.559Z,17.18
2023-04-08T01:37:02.560Z,17.17
2023-04-08T01:37:13.574Z,17.17
2023-04-08T01:37:24.563Z,17.18
2023-04-08T01:37:35.560Z,17.17
2023-04-08T01:37:46.540Z,17.17
2023-04-08T01:37:57.569Z,17.17
2023-04-08T01:38:08.577Z,17.18
2023-04-08T01:38:19.592Z,17.17
2023-04-08T01:38:30.591Z,17.15
2023-04-08T01:38:41.574Z,17.15
2023-04-08T01:38:52.596Z,17.17
2023-04-08T01:39:03.593Z,17.17
2023-04-08T01:39:14.590Z,17.17
2023-04-08T01:39:25.612Z,17.15
2023-04-08T01:39:37.585Z,17.17
2023-04-08T01:39:48.590Z,17.18
2023-04-08T01:39:59.583Z,17.17
2023-04-08T01:40:10.582Z,17.15
2023-04-08T01:40:21.575Z,17.17
2023-04-08T01:40:32.577Z,17.17
2023-04-08T01:40:43.580Z,17.17
2023-04-08T01:40:54.581Z,17.17
2023-04-08T01:41:05.576Z,17.17
2023-04-08T01:41:16.599Z,17.15
2023-04-08T01:41:28.583Z,17.15
2023-04-08T01:41:39.596Z,17.17
2023-04-08T01:41:50.588Z,17.17
2023-04-08T01:42:01.611Z,17.15
2023-04-08T01:42:12.612Z,17.17
2023-04-08T01:42:23.611Z,17.15
2023-04-08T01:42:34.588Z,17.15
2023-04-08T01:42:45.592Z,17.17
2023-04-08T01:42:56.577Z,17.15
2023-04-08T01:43:07.563Z,17.15
2023-04-08T01:43:18.598Z,17.17
2023-04-08T01:43:29.584Z,17.15
2023-04-08T01:43:40.577Z,17.15
2023-04-08T01:43:51.584Z,17.14
2023-04-08T01:44:02.572Z,17.15
2023-04-08T01:44:13.567Z,17.15
2023-04-08T01:44:24.568Z,17.15
2023-04-08T01:44:35.560Z,17.15
2023-04-08T01:44:46.571Z,17.15
2023-04-08T01:44:57.591Z,17.15
2023-04-08T01:45:08.593Z,17.15
2023-04-08T01:45:19.572Z,17.15
2023-04-08T01:45:30.568Z,17.15
2023-04-08T01:45:41.577Z,17.15
2023-04-08T01:45:52.585Z,17.15
2023-04-08T01:46:04.583Z,17.14
2023-04-08T01:46:15.649Z,17.14
2023-04-08T01:46:26.627Z,17.15
2023-04-08T01:46:38.623Z,17.14
2023-04-08T01:46:49.748Z,17.15
2023-04-08T01:47:00.598Z,17.15
2023-04-08T01:47:12.576Z,17.15
2023-04-08T01:47:23.621Z,17.17
2023-04-08T01:47:34.665Z,17.15
2023-04-08T01:47:46.600Z,17.15
2023-04-08T01:47:57.659Z,17.15
2023-04-08T01:48:09.635Z,17.15
2023-04-08T01:48:21.611Z,17.14
2023-04-08T01:48:32.604Z,17.14
2023-04-08T01:48:43.610Z,17.15
2023-04-08T01:48:55.576Z,17.15
2023-04-08T01:49:06.599Z,17.15
2023-04-08T01:49:17.588Z,17.14
2023-04-08T01:49:28.592Z,17.17
2023-04-08T01:49:39.599Z,17.15
2023-04-08T01:49:50.593Z,17.15
2023-04-08T01:50:01.685Z,17.15
2023-04-08T01:50:12.585Z,17.15
2023-04-08T01:50:24.587Z,17.15
2023-04-08T01:50:35.594Z,17.14
2023-04-08T01:50:46.606Z,17.15
2023-04-08T01:50:57.604Z,17.15
2023-04-08T01:51:08.595Z,17.14
2023-04-08T01:51:20.584Z,17.17
2023-04-08T01:51:31.603Z,17.14
2023-04-08T01:51:42.601Z,17.14
2023-04-08T01:51:53.597Z,17.15
2023-04-08T01:52:04.614Z,17.15
2023-04-08T01:52:16.625Z,17.15
2023-04-08T01:52:28.598Z,17.14
2023-04-08T01:52:39.611Z,17.14
2023-04-08T01:52:50.606Z,17.15
2023-04-08T01:53:01.613Z,17.14
2023-04-08T01:53:12.600Z,17.15
2023-04-08T01:53:23.593Z,17.14
2023-04-08T01:53:34.585Z,17.15
2023-04-08T01:53:45.576Z,17.14
2023-04-08T01:53:56.582Z,17.15
2023-04-08T01:54:07.591Z,17.14
2023-04-08T01:54:18.586Z,17.15
2023-04-08T01:54:29.584Z,17.15
2023-04-08T01:54:40.560Z,17.15
2023-04-08T01:54:51.581Z,17.15
2023-04-08T01:55:02.583Z,17.15
2023-04-08T01:55:13.577Z,17.15
2023-04-08T01:55:25.586Z,17.15
2023-04-08T01:55:36.569Z,17.15
2023-04-08T01:55:47.573Z,17.14
2023-04-08T01:55:58.568Z,17.14
2023-04-08T01:56:09.572Z,17.15
2023-04-08T01:56:20.571Z,17.14
2023-04-08T01:56:31.581Z,17.15
2023-04-08T01:56:42.586Z,17.15
2023-04-08T01:56:53.587Z,17.13
2023-04-08T01:57:04.600Z,17.13
2023-04-08T01:57:15.607Z,17.14
2023-04-08T01:57:26.603Z,17.15
2023-04-08T01:57:38.584Z,17.14
2023-04-08T01:57:49.593Z,17.15
2023-04-08T01:58:00.598Z,17.14
2023-04-08T01:58:11.611Z,17.14
2023-04-08T01:58:22.606Z,17.15
2023-04-08T01:58:33.615Z,17.13
2023-04-08T01:58:45.592Z,17.14
2023-04-08T01:58:56.589Z,17.14
2023-04-08T01:59:07.605Z,17.14
2023-04-08T01:59:18.605Z,17.14
2023-04-08T01:59:30.585Z,17.14
2023-04-08T01:59:41.605Z,17.14
2023-04-08T01:59:53.593Z,17.14
2023-04-08T02:00:05.615Z,17.14
2023-04-08T02:00:16.573Z,17.14
2023-04-08T02:00:27.562Z,17.15
2023-04-08T02:00:38.574Z,17.14
2023-04-08T02:00:49.611Z,17.14
2023-04-08T02:01:01.601Z,17.15
2023-04-08T02:01:13.607Z,17.13
2023-04-08T02:01:24.628Z,17.14
2023-04-08T02:01:36.648Z,17.14
2023-04-08T02:01:47.605Z,17.14
2023-04-08T02:01:58.693Z,17.14
2023-04-08T02:02:09.720Z,17.14
2023-04-08T02:02:20.719Z,17.14
2023-04-08T02:02:31.683Z,17.13
2023-04-08T02:02:42.708Z,17.14
2023-04-08T02:02:53.824Z,17.14
2023-04-08T02:03:05.885Z,17.15
2023-04-08T02:03:16.816Z,17.13
2023-04-08T02:03:28.021Z,17.14
2023-04-08T02:03:39.667Z,17.13
2023-04-08T02:03:51.685Z,17.14
2023-04-08T02:04:03.744Z,17.14
2023-04-08T02:04:14.650Z,17.13
2023-04-08T02:04:25.674Z,17.14
2023-04-08T02:04:37.680Z,17.14
2023-04-08T02:04:49.782Z,17.14
2023-04-08T02:05:00.586Z,17.14
2023-04-08T02:05:11.582Z,17.14
2023-04-08T02:05:22.587Z,17.14
2023-04-08T02:05:33.575Z,17.14
2023-04-08T02:05:44.574Z,17.14
2023-04-08T02:05:55.572Z,17.13
2023-04-08T02:06:06.579Z,17.14
2023-04-08T02:06:17.581Z,17.14
2023-04-08T02:06:28.594Z,17.14
2023-04-08T02:06:39.596Z,17.14
2023-04-08T02:06:50.598Z,17.15
2023-04-08T02:07:01.606Z,17.14
2023-04-08T02:07:12.591Z,17.14
2023-04-08T02:07:23.611Z,17.13
2023-04-08T02:07:35.612Z,17.14
2023-04-08T02:07:46.619Z,17.13
2023-04-08T02:07:57.609Z,17.13
2023-04-08T02:08:08.616Z,17.14
2023-04-08T02:08:20.610Z,17.13
2023-04-08T02:08:31.590Z,17.13
2023-04-08T02:08:42.605Z,17.14
2023-04-08T02:08:53.607Z,17.13
2023-04-08T02:09:04.605Z,17.14
2023-04-08T02:09:15.611Z,17.13
2023-04-08T02:09:26.610Z,17.13
2023-04-08T02:09:37.601Z,17.14
2023-04-08T02:09:48.597Z,17.14
2023-04-08T02:09:59.594Z,17.13
2023-04-08T02:10:10.606Z,17.14
2023-04-08T02:10:21.608Z,17.14
2023-04-08T02:10:32.605Z,17.14
2023-04-08T02:10:43.619Z,17.13
2023-04-08T02:10:54.605Z,17.14
2023-04-08T02:11:05.594Z,17.13
2023-04-08T02:11:16.604Z,17.14
2023-04-08T02:11:27.599Z,17.13
2023-04-08T02:11:38.593Z,17.13
2023-04-08T02:11:49.587Z,17.13
2023-04-08T02:12:00.590Z,17.13
2023-04-08T02:12:11.584Z,17.13
2023-04-08T02:12:22.579Z,17.13
2023-04-08T02:12:33.564Z,17.13
2023-04-08T02:12:44.602Z,17.14
2023-04-08T02:12:55.614Z,17.13
2023-04-08T02:13:06.629Z,17.14
2023-04-08T02:13:18.599Z,17.13
2023-04-08T02:13:29.590Z,17.14
2023-04-08T02:13:40.601Z,17.13
2023-04-08T02:13:51.607Z,17.13
2023-04-08T02:14:02.628Z,17.14
2023-04-08T02:14:14.581Z,17.13
2023-04-08T02:14:25.593Z,17.13
2023-04-08T02:14:36.603Z,17.14
2023-04-08T02:14:47.606Z,17.14
2023-04-08T02:14:58.605Z,17.13
2023-04-08T02:15:09.607Z,17.13
2023-04-08T02:15:20.592Z,17.13
2023-04-08T02:15:31.596Z,17.14
2023-04-08T02:15:42.582Z,17.14
2023-04-08T02:15:53.578Z,17.13
2023-04-08T02:16:04.661Z,17.13
2023-04-08T02:16:15.680Z,17.13
2023-04-08T02:16:26.601Z,17.13
2023-04-08T02:16:37.637Z,17.14
2023-04-08T02:16:49.635Z,17.13
2023-04-08T02:17:01.624Z,17.11
2023-04-08T02:17:13.600Z,17.11
2023-04-08T02:17:24.618Z,17.13
2023-04-08T02:17:35.870Z,17.14
2023-04-08T02:17:47.663Z,17.13
2023-04-08T02:17:59.693Z,17.10
2023-04-08T02:18:10.630Z,17.13
2023-04-08T02:18:21.562Z,17.13
2023-04-08T02:18:32.562Z,17.14
2023-04-08T02:18:43.576Z,17.11
2023-04-08T02:18:54.561Z,17.13
2023-04-08T02:19:05.565Z,17.11
2023-04-08T02:19:16.571Z,17.11
2023-04-08T02:19:27.561Z,17.13
2023-04-08T02:19:38.583Z,17.11
2023-04-08T02:19:49.596Z,17.13
2023-04-08T02:20:00.609Z,17.11
2023-04-08T02:20:11.616Z,17.11
2023-04-08T02:20:23.604Z,17.11
2023-04-08T02:20:35.592Z,17.13
2023-04-08T02:20:46.617Z,17.13
2023-04-08T02:20:58.595Z,17.13
2023-04-08T02:21:09.604Z,17.11
2023-04-08T02:21:20.599Z,17.13
2023-04-08T02:21:31.604Z,17.13
2023-04-08T02:21:42.605Z,17.11
2023-04-08T02:21:53.614Z,17.11
2023-04-08T02:22:04.605Z,17.13
2023-04-08T02:22:16.618Z,17.13
2023-04-08T02:22:28.593Z,17.11
2023-04-08T02:22:39.577Z,17.11
2023-04-08T02:22:50.588Z,17.11
2023-04-08T02:23:01.604Z,17.11
2023-04-08T02:23:12.601Z,17.11
2023-04-08T02:23:24.596Z,17.11
2023-04-08T02:23:35.602Z,17.13
2023-04-08T02:23:46.614Z,17.10
2023-04-08T02:23:57.606Z,17.11
2023-04-08T02:24:08.602Z,17.11